createdAt,value
2018-05-11T00:00:25.275Z,8.30
2018-05-11T00:01:25.206Z,8.50
2018-05-11T00:02:25.114Z,9.10
2018-05-11T00:03:25.036Z,8.60
2018-05-11T00:04:24.988Z,9.10
2018-05-11T00:05:24.879Z,9.40
2018-05-11T00:06:24.797Z,8.40
2018-05-11T00:07:24.729Z,8.90
2018-05-11T00:08:24.657Z,9.70
2018-05-11T00:09:24.566Z,9.00
2018-05-11T00:10:24.476Z,9.00
2018-05-11T00:11:24.412Z,9.30
2018-05-11T00:12:24.316Z,8.50
2018-05-11T00:13:24.254Z,8.50
2018-05-11T00:14:24.178Z,9.40
2018-05-11T00:15:25.087Z,9.30
2018-05-11T00:16:24.003Z,9.40
2018-05-11T00:17:23.919Z,8.80
2018-05-11T00:18:23.830Z,9.40
2018-05-11T00:19:23.781Z,9.50
2018-05-11T00:20:23.703Z,9.50
2018-05-11T00:21:23.603Z,9.30
2018-05-11T00:22:23.520Z,9.30
2018-05-11T00:23:23.478Z,9.20
2018-05-11T00:24:23.379Z,9.30
2018-05-11T00:25:23.285Z,9.40
2018-05-11T00:26:23.195Z,10.10
2018-05-11T00:27:23.121Z,9.30
2018-05-11T00:28:23.042Z,9.10
2018-05-11T00:29:23.000Z,9.60
2018-05-11T00:30:22.885Z,9.80
2018-05-11T00:31:22.799Z,9.10
2018-05-11T00:32:22.716Z,9.60
2018-05-11T00:33:22.646Z,9.60
2018-05-11T00:34:22.577Z,10.10
2018-05-11T00:35:22.508Z,10.20
2018-05-11T00:36:22.403Z,9.50
2018-05-11T00:39:04.502Z,10.10
2018-05-11T00:40:05.463Z,10.40
2018-05-11T00:41:04.357Z,9.50
2018-05-11T00:42:04.266Z,10.00
2018-05-11T00:43:04.187Z,10.30
2018-05-11T00:45:46.102Z,10.50
2018-05-11T00:46:46.185Z,9.90
2018-05-11T00:47:45.890Z,9.80
2018-05-11T00:48:47.783Z,9.90
2018-05-11T00:49:45.707Z,10.00
2018-05-11T00:50:45.615Z,9.50
2018-05-11T00:51:45.568Z,9.70
2018-05-11T00:52:45.451Z,9.90
2018-05-11T00:53:45.375Z,9.80
2018-05-11T00:54:45.289Z,10.00
2018-05-11T00:55:45.217Z,10.40
2018-05-11T00:56:45.137Z,10.20
2018-05-11T00:57:45.064Z,10.00
2018-05-11T00:58:44.972Z,10.30
2018-05-11T00:59:44.888Z,9.30
2018-05-11T01:00:44.817Z,9.90
2018-05-11T01:01:44.730Z,10.30
2018-05-11T01:02:44.680Z,9.60
2018-05-11T01:03:44.575Z,9.70
2018-05-11T01:04:44.496Z,9.90
2018-05-11T01:05:44.440Z,10.00
2018-05-11T01:06:44.371Z,10.30
2018-05-11T01:07:44.277Z,9.60
2018-05-11T01:08:44.181Z,10.40
2018-05-11T01:09:44.103Z,10.10
2018-05-11T01:12:26.027Z,10.60
2018-05-11T01:13:25.953Z,9.60
2018-05-11T01:14:25.874Z,9.30
2018-05-11T01:15:25.776Z,9.20
2018-05-11T01:16:25.687Z,8.90
2018-05-11T01:17:26.643Z,10.20
2018-05-11T01:18:25.531Z,10.10
2018-05-11T01:19:25.467Z,9.40
2018-05-11T01:20:25.380Z,9.30
2018-05-11T01:21:25.294Z,9.70
2018-05-11T01:22:25.233Z,9.70
2018-05-11T01:23:25.136Z,9.60
2018-05-11T01:24:25.075Z,8.70
2018-05-11T01:25:24.969Z,9.10
2018-05-11T01:26:24.893Z,9.20
2018-05-11T01:27:24.845Z,8.70
2018-05-11T01:28:24.823Z,9.00
2018-05-11T01:29:24.702Z,8.90
2018-05-11T01:30:24.578Z,8.30
2018-05-11T01:31:24.502Z,9.00
2018-05-11T01:32:24.424Z,8.80
2018-05-11T01:35:06.570Z,8.90
2018-05-11T01:36:06.454Z,8.80
2018-05-11T01:37:06.364Z,8.90
2018-05-11T01:38:06.294Z,9.20
2018-05-11T01:39:06.212Z,9.30
2018-05-11T01:40:07.142Z,9.90
2018-05-11T01:41:06.040Z,8.90
2018-05-11T01:42:05.964Z,9.20
2018-05-11T01:43:05.875Z,8.60
2018-05-11T01:44:05.864Z,9.10
2018-05-11T01:45:05.735Z,8.90
2018-05-11T01:46:05.651Z,9.40
2018-05-11T01:47:05.562Z,9.20
2018-05-11T01:48:05.483Z,9.10
2018-05-11T01:49:05.405Z,9.20
2018-05-11T01:50:05.359Z,9.60
2018-05-11T01:51:05.241Z,9.50
2018-05-11T01:53:47.530Z,9.80
2018-05-11T01:54:47.470Z,9.00
2018-05-11T01:55:47.361Z,8.70
2018-05-11T01:56:47.292Z,9.40
2018-05-11T01:57:47.208Z,9.10
2018-05-11T01:58:47.123Z,9.30
2018-05-11T01:59:47.036Z,9.50
2018-05-11T02:00:47.026Z,9.70
2018-05-11T02:01:46.887Z,9.90
2018-05-11T02:02:46.819Z,9.40
2018-05-11T02:03:46.722Z,9.20
2018-05-11T02:04:46.664Z,9.40
2018-05-11T02:05:46.577Z,9.40
2018-05-11T02:06:46.492Z,9.70
2018-05-11T02:07:46.416Z,10.20
2018-05-11T02:08:46.344Z,9.50
2018-05-11T02:09:46.269Z,10.50
2018-05-11T02:10:46.169Z,9.60
2018-05-11T02:11:46.079Z,9.60
2018-05-11T02:12:46.007Z,10.10
2018-05-11T02:13:45.922Z,9.80
2018-05-11T02:14:45.880Z,9.70
2018-05-11T02:15:45.800Z,10.10
2018-05-11T02:16:45.684Z,9.80
2018-05-11T02:17:45.600Z,10.60
2018-05-11T02:18:45.524Z,10.20
2018-05-11T02:19:45.444Z,10.30
2018-05-11T02:20:45.388Z,10.20
2018-05-11T02:21:45.299Z,10.70
2018-05-11T02:22:45.212Z,10.20
2018-05-11T02:23:45.128Z,10.60
2018-05-11T02:24:45.053Z,9.80
2018-05-11T02:25:44.965Z,10.00
2018-05-11T02:26:45.934Z,11.00
2018-05-11T02:27:44.810Z,10.70
2018-05-11T02:28:44.757Z,11.20
2018-05-11T02:29:44.660Z,11.00
2018-05-11T02:30:45.602Z,11.60
2018-05-11T02:31:44.512Z,11.90
2018-05-11T02:32:44.507Z,11.90
2018-05-11T02:33:44.345Z,12.20
2018-05-11T02:34:44.243Z,11.10
2018-05-11T02:35:44.190Z,11.60
2018-05-11T02:36:45.108Z,11.80
2018-05-11T02:37:44.003Z,12.00
2018-05-11T02:38:43.938Z,12.00
2018-05-11T02:39:43.867Z,11.60
2018-05-11T02:40:43.797Z,11.60
2018-05-11T02:41:43.713Z,12.30
2018-05-11T02:42:43.608Z,12.00
2018-05-11T02:43:43.523Z,12.20
2018-05-11T02:44:43.456Z,12.50
2018-05-11T02:45:43.367Z,12.00
2018-05-11T02:46:43.317Z,12.20
2018-05-11T02:47:43.212Z,12.10
2018-05-11T02:50:25.055Z,11.90
2018-05-11T02:51:24.953Z,13.20
2018-05-11T02:52:24.894Z,12.40
2018-05-11T02:53:24.801Z,12.40
2018-05-11T02:54:24.720Z,12.60
2018-05-11T02:55:24.641Z,13.20
2018-05-11T02:56:24.544Z,13.00
2018-05-11T02:57:24.471Z,13.00
2018-05-11T02:58:24.409Z,12.80
2018-05-11T02:59:24.324Z,11.70
2018-05-11T03:00:24.229Z,12.20
2018-05-11T03:03:06.543Z,12.50
2018-05-11T03:04:06.474Z,11.70
2018-05-11T03:05:06.374Z,13.10
2018-05-11T03:06:06.323Z,11.60
2018-05-11T03:07:06.231Z,11.30
2018-05-11T03:08:06.150Z,12.00
2018-05-11T03:09:06.046Z,11.70
2018-05-11T03:10:05.984Z,11.30
2018-05-11T03:11:05.907Z,11.80
2018-05-11T03:13:48.057Z,12.00
2018-05-11T03:14:47.956Z,12.40
2018-05-11T03:15:47.881Z,12.40
2018-05-11T03:16:47.804Z,12.50
2018-05-11T03:17:47.705Z,12.40
2018-05-11T03:18:47.685Z,12.20
2018-05-11T03:19:47.549Z,12.80
2018-05-11T03:22:29.528Z,12.30
2018-05-11T03:25:11.560Z,12.40
2018-05-11T03:26:11.466Z,12.40
2018-05-11T03:27:11.383Z,12.70
2018-05-11T03:29:53.564Z,12.90
2018-05-11T03:30:53.458Z,12.60
2018-05-11T03:31:53.372Z,12.50
2018-05-11T03:32:53.298Z,12.90
2018-05-11T03:33:53.210Z,12.90
2018-05-11T03:34:53.158Z,12.10
2018-05-11T03:35:53.053Z,12.30
2018-05-11T03:36:52.979Z,12.90
2018-05-11T03:37:52.891Z,13.80
2018-05-11T03:38:52.822Z,12.70
2018-05-11T03:39:52.792Z,12.90
2018-05-11T03:40:52.652Z,13.10
2018-05-11T03:41:52.579Z,13.10
2018-05-11T03:42:52.503Z,12.80
2018-05-11T03:43:52.409Z,13.00
2018-05-11T03:44:52.405Z,13.20
2018-05-11T03:45:52.246Z,12.20
2018-05-11T03:46:52.173Z,12.50
2018-05-11T03:47:52.090Z,12.80
2018-05-11T03:48:52.030Z,12.90
2018-05-11T03:49:51.931Z,12.80
2018-05-11T03:50:52.873Z,12.70
2018-05-11T03:51:51.770Z,12.60
2018-05-11T03:52:51.693Z,12.80
2018-05-11T03:53:51.620Z,12.40
2018-05-11T03:54:51.541Z,13.00
2018-05-11T03:55:51.464Z,12.70
2018-05-11T03:56:51.376Z,12.50
2018-05-11T03:57:51.297Z,13.20
2018-05-11T03:58:51.225Z,13.00
2018-05-11T03:59:51.141Z,13.00
2018-05-11T04:00:52.072Z,13.70
2018-05-11T04:01:51.138Z,13.10
2018-05-11T04:02:50.901Z,12.50
2018-05-11T04:03:50.813Z,12.50
2018-05-11T04:06:33.065Z,12.40
2018-05-11T04:07:32.998Z,12.90
2018-05-11T04:08:32.883Z,12.60
2018-05-11T04:09:32.822Z,12.70
2018-05-11T04:10:32.721Z,12.70
2018-05-11T04:13:14.614Z,12.80
2018-05-11T04:15:56.555Z,13.90
2018-05-11T04:16:57.491Z,13.70
2018-05-11T04:17:56.415Z,13.60
2018-05-11T04:18:56.320Z,12.70
2018-05-11T04:19:56.215Z,14.50
2018-05-11T04:20:56.184Z,15.20
2018-05-11T04:21:56.057Z,13.80
2018-05-11T04:22:57.003Z,14.40
2018-05-11T04:23:55.905Z,14.40
2018-05-11T04:26:38.048Z,14.90
2018-05-11T04:27:38.989Z,14.70
2018-05-11T04:28:37.902Z,15.80
2018-05-11T04:29:37.808Z,15.30
2018-05-11T04:30:37.739Z,15.20
2018-05-11T04:31:37.654Z,15.90
2018-05-11T04:32:37.565Z,15.00
2018-05-11T04:33:37.535Z,15.20
2018-05-11T04:34:37.404Z,15.20
2018-05-11T04:35:37.327Z,15.50
2018-05-11T04:36:37.253Z,15.40
2018-05-11T04:37:37.179Z,16.00
2018-05-11T04:38:37.099Z,16.70
2018-05-11T04:39:38.038Z,16.10
2018-05-11T04:40:36.928Z,16.30
2018-05-11T04:41:36.857Z,16.20
2018-05-11T04:42:36.761Z,16.00
2018-05-11T04:43:37.706Z,16.70
2018-05-11T04:44:36.606Z,16.20
2018-05-11T04:45:36.539Z,16.50
2018-05-11T04:46:36.436Z,16.50
2018-05-11T04:49:18.568Z,17.30
2018-05-11T04:50:18.482Z,16.40
2018-05-11T04:51:18.405Z,17.10
2018-05-11T04:52:18.322Z,16.30
2018-05-11T04:53:18.233Z,15.60
2018-05-11T04:54:18.156Z,16.30
2018-05-11T04:55:18.071Z,16.60
2018-05-11T04:56:18.014Z,15.40
2018-05-11T04:57:17.909Z,16.20
2018-05-11T04:58:17.842Z,15.00
2018-05-11T04:59:17.756Z,14.60
2018-05-11T05:00:17.686Z,14.90
2018-05-11T05:01:17.589Z,15.50
2018-05-11T05:02:17.518Z,15.00
2018-05-11T05:03:17.424Z,15.40
2018-05-11T05:04:17.472Z,15.60
2018-05-11T05:05:17.295Z,15.40
2018-05-11T05:07:59.579Z,16.40
2018-05-11T05:08:59.489Z,16.10
2018-05-11T05:09:59.434Z,15.70
2018-05-11T05:10:59.329Z,15.60
2018-05-11T05:11:59.232Z,16.10
2018-05-11T05:12:59.168Z,15.60
2018-05-11T05:13:59.089Z,16.00
2018-05-11T05:14:59.031Z,16.40
2018-05-11T05:15:58.922Z,16.20
2018-05-11T05:16:58.865Z,15.70
2018-05-11T05:17:58.755Z,16.40
2018-05-11T05:18:58.709Z,15.90
2018-05-11T05:19:58.633Z,16.00
2018-05-11T05:20:58.522Z,16.90
2018-05-11T05:21:58.433Z,15.80
2018-05-11T05:22:58.391Z,16.80
2018-05-11T05:23:58.295Z,16.50
2018-05-11T05:24:59.230Z,16.20
2018-05-11T05:25:58.120Z,16.90
2018-05-11T05:26:58.061Z,16.80
2018-05-11T05:27:57.962Z,17.40
2018-05-11T05:30:40.084Z,17.50
2018-05-11T05:33:22.063Z,18.40
2018-05-11T05:34:22.013Z,17.80
2018-05-11T05:35:21.923Z,18.90
2018-05-11T05:38:04.064Z,18.30
2018-05-11T05:40:46.084Z,19.10
2018-05-11T05:41:45.993Z,19.40
2018-05-11T05:42:45.910Z,18.60
2018-05-11T05:43:45.844Z,18.80
2018-05-11T05:44:45.762Z,19.00
2018-05-11T05:45:45.754Z,18.20
2018-05-11T05:46:45.600Z,19.00
2018-05-11T05:47:45.518Z,18.70
2018-05-11T05:48:45.445Z,19.80
2018-05-11T05:49:45.364Z,18.10
2018-05-11T05:50:45.264Z,17.80
2018-05-11T05:51:46.215Z,18.60
2018-05-11T05:52:45.115Z,19.10
2018-05-11T05:53:45.038Z,19.60
2018-05-11T05:54:44.947Z,19.00
2018-05-11T05:55:44.872Z,18.50
2018-05-11T05:56:44.830Z,21.70
2018-05-11T05:57:44.726Z,19.00
2018-05-11T05:58:44.640Z,18.90
2018-05-11T05:59:44.565Z,18.40
2018-05-11T06:00:44.495Z,19.40
2018-05-11T06:03:26.585Z,18.40
2018-05-11T06:06:08.564Z,19.00
2018-05-11T06:07:08.554Z,18.30
2018-05-11T06:08:08.499Z,17.90
2018-05-11T06:09:08.434Z,17.90
2018-05-11T06:10:08.267Z,17.90
2018-05-11T06:11:08.237Z,17.50
2018-05-11T06:12:08.109Z,17.60
2018-05-11T06:13:08.149Z,18.30
2018-05-11T06:14:07.946Z,17.10
2018-05-11T06:15:07.955Z,15.80
2018-05-11T06:16:07.783Z,15.50
2018-05-11T06:17:07.785Z,14.90
2018-05-11T06:18:07.616Z,15.70
2018-05-11T06:19:07.568Z,15.60
2018-05-11T06:20:07.480Z,16.00
2018-05-11T06:21:07.475Z,15.70
2018-05-11T06:22:07.468Z,15.20
2018-05-11T06:23:07.278Z,15.50
2018-05-11T06:24:07.155Z,15.40
2018-05-11T06:25:07.197Z,15.80
2018-05-11T06:26:06.999Z,15.80
2018-05-11T06:27:07.035Z,15.50
2018-05-11T06:28:06.856Z,16.20
2018-05-11T06:29:06.814Z,15.60
2018-05-11T06:30:06.676Z,15.80
2018-05-11T06:31:06.726Z,16.30
2018-05-11T06:32:06.532Z,15.60
2018-05-11T06:33:06.593Z,15.60
2018-05-11T06:34:06.386Z,14.80
2018-05-11T06:35:06.333Z,15.50
2018-05-11T06:36:06.214Z,15.20
2018-05-11T06:37:06.250Z,15.30
2018-05-11T06:38:06.094Z,16.00
2018-05-11T06:39:06.057Z,15.40
2018-05-11T06:40:05.912Z,14.90
2018-05-11T06:41:05.875Z,14.90
2018-05-11T06:42:05.773Z,14.10
2018-05-11T06:43:05.705Z,15.50
2018-05-11T06:44:05.602Z,14.60
2018-05-11T06:45:05.583Z,13.50
2018-05-11T06:46:05.533Z,14.20
2018-05-11T06:48:47.610Z,13.30
2018-05-11T06:51:29.586Z,12.00
2018-05-11T06:54:11.606Z,11.80
2018-05-11T06:55:11.592Z,12.80
2018-05-11T06:56:11.475Z,13.60
2018-05-11T06:57:11.432Z,12.30
2018-05-11T06:58:11.320Z,13.00
2018-05-11T07:00:53.656Z,13.80
2018-05-11T07:01:53.524Z,14.30
2018-05-11T07:02:53.473Z,14.00
2018-05-11T07:03:53.471Z,13.80
2018-05-11T07:04:53.313Z,14.60
2018-05-11T07:05:53.336Z,13.60
2018-05-11T07:06:53.162Z,13.20
2018-05-11T07:09:35.622Z,14.30
2018-05-11T07:10:35.547Z,14.50
2018-05-11T07:11:35.443Z,15.60
2018-05-11T07:12:35.455Z,15.70
2018-05-11T07:13:35.279Z,15.70
2018-05-11T07:14:35.301Z,15.90
2018-05-11T07:15:35.137Z,14.20
2018-05-11T07:16:35.179Z,16.00
2018-05-11T07:17:34.989Z,15.80
2018-05-11T07:20:17.131Z,17.10
2018-05-11T07:23:03.097Z,16.60
2018-05-11T07:24:03.089Z,16.70
2018-05-11T07:25:02.978Z,16.90
2018-05-11T07:26:03.001Z,15.40
2018-05-11T07:27:02.791Z,16.70
2018-05-11T07:28:02.808Z,18.20
2018-05-11T07:29:02.640Z,18.40
2018-05-11T07:30:02.638Z,19.10
2018-05-11T07:31:02.495Z,19.60
2018-05-11T07:32:02.546Z,20.40
2018-05-11T07:33:02.370Z,20.20
2018-05-11T07:34:02.334Z,19.30
2018-05-11T07:35:02.284Z,18.90
2018-05-11T07:36:02.232Z,18.60
2018-05-11T07:37:02.045Z,18.40
2018-05-11T07:38:02.066Z,18.20
2018-05-11T07:39:01.908Z,17.90
2018-05-11T07:40:01.863Z,15.70
2018-05-11T07:41:01.778Z,16.50
2018-05-11T07:42:01.760Z,17.20
2018-05-11T07:43:01.642Z,16.90
2018-05-11T07:44:01.577Z,17.20
2018-05-11T07:45:01.450Z,17.10
2018-05-11T07:46:01.525Z,16.40
2018-05-11T07:47:01.304Z,16.00
2018-05-11T07:49:43.607Z,16.00
2018-05-11T07:50:43.624Z,15.10
2018-05-11T07:51:43.464Z,15.00
2018-05-11T07:54:25.646Z,15.10
2018-05-11T07:55:25.675Z,15.00
2018-05-11T07:56:25.494Z,14.20
2018-05-11T07:57:25.431Z,14.80
2018-05-11T07:58:25.331Z,13.90
2018-05-11T08:01:07.612Z,14.50
2018-05-11T08:02:07.709Z,14.90
2018-05-11T08:03:07.461Z,14.40
2018-05-11T08:04:07.444Z,14.70
2018-05-11T08:05:07.332Z,14.00
2018-05-11T08:06:07.395Z,15.20
2018-05-11T08:07:07.202Z,14.60
2018-05-11T08:08:07.172Z,15.80
2018-05-11T08:09:07.038Z,15.90
2018-05-11T08:10:07.105Z,15.20
2018-05-11T08:11:06.890Z,16.50
2018-05-11T08:12:06.891Z,16.10
2018-05-11T08:13:06.769Z,16.00
2018-05-11T08:14:06.807Z,16.90
2018-05-11T08:15:06.608Z,17.00
2018-05-11T08:16:06.595Z,17.00
2018-05-11T08:17:06.482Z,16.80
2018-05-11T08:18:06.383Z,17.10
2018-05-11T08:19:06.313Z,17.60
2018-05-11T08:21:48.644Z,16.30
2018-05-11T08:22:48.558Z,20.80
2018-05-11T08:23:48.479Z,17.80
2018-05-11T08:24:48.396Z,18.00
2018-05-11T08:25:48.370Z,17.30
2018-05-11T08:26:48.342Z,16.40
2018-05-11T08:27:48.205Z,16.50
2018-05-11T08:30:30.120Z,16.30
2018-05-11T08:33:12.144Z,13.60
2018-05-11T08:34:12.048Z,15.90
2018-05-11T08:35:11.977Z,16.10
2018-05-11T08:36:11.901Z,15.20
2018-05-11T08:37:11.832Z,15.30
2018-05-11T08:38:11.796Z,15.10
2018-05-11T08:39:11.669Z,14.40
2018-05-11T08:40:11.593Z,16.00
2018-05-11T08:41:11.574Z,14.90
2018-05-11T08:43:53.662Z,15.60
2018-05-11T08:46:35.623Z,15.00
2018-05-11T08:47:35.573Z,14.50
2018-05-11T08:48:35.476Z,14.60
2018-05-11T08:51:17.631Z,15.30
2018-05-11T08:52:17.564Z,13.70
2018-05-11T08:53:17.513Z,13.50
2018-05-11T08:54:17.419Z,13.60
2018-05-11T08:55:17.342Z,13.60
2018-05-11T08:56:17.268Z,13.10
2018-05-11T08:57:17.200Z,13.80
2018-05-11T08:58:17.140Z,13.40
2018-05-11T08:59:17.045Z,14.40
2018-05-11T09:00:16.986Z,12.70
2018-05-11T09:01:16.914Z,12.80
2018-05-11T09:02:16.828Z,12.20
2018-05-11T09:03:16.768Z,12.50
2018-05-11T09:04:16.686Z,12.90
2018-05-11T09:05:16.609Z,13.30
2018-05-11T09:06:16.543Z,12.50
2018-05-11T09:07:16.462Z,11.70
2018-05-11T09:08:16.416Z,12.40
2018-05-11T09:09:16.347Z,12.70
2018-05-11T09:10:16.347Z,12.90
2018-05-11T09:11:16.174Z,13.10
2018-05-11T09:12:16.135Z,12.90
2018-05-11T09:13:16.040Z,13.90
2018-05-11T09:14:16.016Z,12.30
2018-05-11T09:15:15.895Z,12.70
2018-05-11T09:17:58.141Z,13.60
2018-05-11T09:20:40.154Z,13.50
2018-05-11T09:21:40.099Z,13.00
2018-05-11T09:22:39.988Z,12.20
2018-05-11T09:23:39.936Z,13.20
2018-05-11T09:24:39.844Z,11.90
2018-05-11T09:25:39.811Z,12.70
2018-05-11T09:26:39.715Z,12.50
2018-05-11T09:27:39.739Z,13.10
2018-05-11T09:28:39.626Z,14.40
2018-05-11T09:31:21.670Z,13.00
2018-05-11T09:32:21.588Z,12.00
2018-05-11T09:33:21.513Z,11.30
2018-05-11T09:34:21.435Z,11.70
2018-05-11T09:35:21.374Z,12.40
2018-05-11T09:36:21.315Z,12.20
2018-05-11T09:37:21.214Z,12.80
2018-05-11T09:38:21.154Z,11.70
2018-05-11T09:39:21.069Z,12.20
2018-05-11T09:40:21.018Z,12.20
2018-05-11T09:41:20.977Z,12.00
2018-05-11T09:42:20.993Z,11.50
2018-05-11T09:43:20.794Z,12.00
2018-05-11T09:44:20.809Z,10.60
2018-05-11T09:45:20.656Z,11.80
2018-05-11T09:46:21.678Z,11.90
2018-05-11T09:47:20.529Z,12.20
2018-05-11T09:48:20.539Z,12.50
2018-05-11T09:49:20.390Z,11.50
2018-05-11T09:50:20.337Z,12.10
2018-05-11T09:51:20.269Z,12.30
2018-05-11T09:52:21.309Z,12.70
2018-05-11T09:53:20.104Z,12.00
2018-05-11T09:54:20.160Z,13.80
2018-05-11T09:55:19.977Z,12.40
2018-05-11T09:58:02.187Z,12.50
2018-05-11T09:59:02.187Z,12.00
2018-05-11T10:00:02.025Z,11.20
2018-05-11T10:01:02.101Z,11.80
2018-05-11T10:02:01.888Z,11.40
2018-05-11T10:03:01.846Z,11.10
2018-05-11T10:04:01.746Z,11.00
2018-05-11T10:05:01.729Z,12.10
2018-05-11T10:06:01.607Z,11.20
2018-05-11T10:08:43.671Z,11.30
2018-05-11T10:09:43.593Z,11.10
2018-05-11T10:10:43.524Z,11.00
2018-05-11T10:13:25.685Z,12.30
2018-05-11T10:14:25.713Z,12.20
2018-05-11T10:15:25.524Z,11.80
2018-05-11T10:16:25.515Z,11.20
2018-05-11T10:17:25.394Z,12.80
2018-05-11T10:18:26.402Z,11.40
2018-05-11T10:19:25.276Z,10.90
2018-05-11T10:20:25.238Z,10.60
2018-05-11T10:21:25.123Z,16.70
2018-05-11T10:22:25.151Z,12.00
2018-05-11T10:23:25.020Z,12.80
2018-05-11T10:24:24.959Z,12.00
2018-05-11T10:25:24.852Z,12.40
2018-05-11T10:26:24.808Z,10.70
2018-05-11T10:27:24.726Z,13.00
2018-05-11T10:28:24.819Z,12.30
2018-05-11T10:29:24.602Z,12.70
2018-05-11T10:30:24.589Z,11.60
2018-05-11T10:31:24.464Z,11.50
2018-05-11T10:32:24.515Z,12.20
2018-05-11T10:33:24.390Z,11.70
2018-05-11T10:34:24.315Z,11.20
2018-05-11T10:35:24.202Z,11.60
2018-05-11T10:36:24.221Z,11.60
2018-05-11T10:37:24.064Z,11.40
2018-05-11T10:38:24.140Z,10.70
2018-05-11T10:39:23.977Z,11.40
2018-05-11T10:40:23.935Z,11.20
2018-05-11T10:41:23.805Z,11.10
2018-05-11T10:42:23.842Z,10.80
2018-05-11T10:43:23.671Z,10.60
2018-05-11T10:44:23.702Z,11.80
2018-05-11T10:45:23.551Z,12.20
2018-05-11T10:46:23.691Z,11.30
2018-05-11T10:47:23.475Z,11.30
2018-05-11T10:48:23.511Z,10.80
2018-05-11T10:49:23.378Z,11.80
2018-05-11T10:50:23.289Z,11.60
2018-05-11T10:51:23.148Z,12.00
2018-05-11T10:52:23.222Z,11.80
2018-05-11T10:53:23.014Z,11.50
2018-05-11T10:54:23.044Z,10.80
2018-05-11T10:55:22.884Z,11.20
2018-05-11T10:56:22.912Z,12.60
2018-05-11T10:57:22.746Z,12.60
2018-05-11T10:58:22.769Z,11.90
2018-05-11T10:59:22.641Z,11.20
2018-05-11T11:00:22.777Z,11.80
2018-05-11T11:01:22.628Z,11.50
2018-05-11T11:02:22.594Z,11.80
2018-05-11T11:03:22.396Z,11.60
2018-05-11T11:04:22.293Z,11.00
2018-05-11T11:05:22.247Z,10.80
2018-05-11T11:06:22.304Z,11.60
2018-05-11T11:07:22.089Z,11.60
2018-05-11T11:08:22.080Z,11.50
2018-05-11T11:09:21.950Z,10.50
2018-05-11T11:10:22.023Z,9.50
2018-05-11T11:11:21.808Z,10.20
2018-05-11T11:12:21.793Z,11.10
2018-05-11T11:13:21.672Z,10.90
2018-05-11T11:14:21.765Z,11.00
2018-05-11T11:15:21.557Z,11.10
2018-05-11T11:16:21.528Z,12.30
2018-05-11T11:17:21.407Z,11.20
2018-05-11T11:18:21.359Z,11.40
2018-05-11T11:19:21.284Z,11.70
2018-05-11T11:22:03.208Z,11.40
2018-05-11T11:23:03.221Z,10.20
2018-05-11T11:24:03.076Z,9.90
2018-05-11T11:25:03.044Z,9.60
2018-05-11T11:26:02.940Z,10.00
2018-05-11T11:27:02.986Z,9.90
2018-05-11T11:28:02.789Z,10.70
2018-05-11T11:29:02.753Z,8.80
2018-05-11T11:30:02.658Z,8.80
2018-05-11T11:31:02.712Z,8.60
2018-05-11T11:32:02.510Z,9.70
2018-05-11T11:33:02.576Z,10.00
2018-05-11T11:34:02.396Z,9.80
2018-05-11T11:36:44.723Z,9.60
2018-05-11T11:37:44.698Z,9.90
2018-05-11T11:38:44.559Z,9.80
2018-05-11T11:41:26.711Z,10.90
2018-05-11T11:42:26.750Z,10.50
2018-05-11T11:43:26.576Z,11.10
2018-05-11T11:44:26.609Z,11.00
2018-05-11T11:45:26.434Z,12.20
2018-05-11T11:46:26.422Z,10.50
2018-05-11T11:47:26.389Z,10.30
2018-05-11T11:50:08.207Z,10.60
2018-05-11T11:51:08.143Z,10.00
2018-05-11T11:52:08.089Z,9.40
2018-05-11T11:53:08.070Z,10.20
2018-05-11T11:54:07.946Z,10.50
2018-05-11T11:55:07.886Z,11.20
2018-05-11T11:56:07.816Z,10.40
2018-05-11T11:57:07.788Z,9.90
2018-05-11T11:58:07.679Z,9.50
2018-05-11T11:59:07.604Z,8.70
2018-05-11T12:00:07.529Z,8.80
2018-05-11T12:01:07.499Z,8.20
2018-05-11T12:02:07.423Z,8.60
2018-05-11T12:03:07.412Z,8.50
2018-05-11T12:04:07.244Z,8.20
2018-05-11T12:05:07.292Z,7.40
2018-05-11T12:06:07.092Z,7.80
2018-05-11T12:07:07.116Z,7.80
2018-05-11T12:08:06.977Z,7.70
2018-05-11T12:09:08.055Z,8.20
2018-05-11T12:10:06.808Z,8.80
2018-05-11T12:11:06.842Z,8.60
2018-05-11T12:12:06.666Z,8.10
2018-05-11T12:13:06.637Z,7.80
2018-05-11T12:14:06.514Z,8.00
2018-05-11T12:15:06.623Z,7.60
2018-05-11T12:16:06.388Z,6.80
2018-05-11T12:17:06.316Z,7.10
2018-05-11T12:18:06.268Z,7.10
2018-05-11T12:19:06.193Z,7.10
2018-05-11T12:20:06.082Z,6.60
2018-05-11T12:21:06.007Z,7.20
2018-05-11T12:22:05.926Z,6.40
2018-05-11T12:23:06.069Z,7.10
2018-05-11T12:24:05.832Z,6.40
2018-05-11T12:26:47.710Z,6.70
2018-05-11T12:27:47.687Z,7.60
2018-05-11T12:28:47.579Z,6.80
2018-05-11T12:29:47.660Z,6.70
2018-05-11T12:30:47.412Z,6.80
2018-05-11T12:31:47.405Z,6.40
2018-05-11T12:32:47.279Z,6.40
2018-05-11T12:33:47.220Z,5.90
2018-05-11T12:34:47.188Z,5.70
2018-05-11T12:37:29.206Z,6.20
2018-05-11T12:38:29.223Z,5.70
2018-05-11T12:39:29.090Z,5.80
2018-05-11T12:40:29.053Z,5.50
2018-05-11T12:41:28.914Z,5.60
2018-05-11T12:42:28.862Z,5.80
2018-05-11T12:43:28.773Z,6.70
2018-05-11T12:44:28.795Z,6.30
2018-05-11T12:45:28.702Z,5.70
2018-05-11T12:46:28.672Z,6.90
2018-05-11T12:47:28.559Z,6.20
2018-05-11T12:48:28.387Z,7.00
2018-05-11T12:49:28.375Z,7.00
2018-05-11T12:50:29.286Z,6.60
2018-05-11T12:51:28.273Z,5.90
2018-05-11T12:52:28.190Z,6.60
2018-05-11T12:53:28.132Z,7.00
2018-05-11T12:54:28.025Z,6.50
2018-05-11T12:55:27.864Z,6.40
2018-05-11T12:56:27.857Z,6.70
2018-05-11T12:57:27.714Z,6.00
2018-05-11T13:00:09.775Z,6.10
2018-05-11T13:02:51.722Z,5.80
2018-05-11T13:05:33.750Z,4.70
2018-05-11T13:06:33.677Z,5.00
2018-05-11T13:07:33.621Z,4.70
2018-05-11T13:08:33.616Z,4.30
2018-05-11T13:09:33.442Z,4.90
2018-05-11T13:10:34.445Z,5.10
2018-05-11T13:11:33.338Z,4.60
2018-05-11T13:14:15.219Z,4.30
2018-05-11T13:16:57.259Z,4.20
2018-05-11T13:17:57.222Z,4.30
2018-05-11T13:18:57.081Z,4.20
2018-05-11T13:19:57.037Z,4.10
2018-05-11T13:20:56.935Z,3.90
2018-05-11T13:21:56.991Z,3.80
2018-05-11T13:22:56.764Z,3.80
2018-05-11T13:25:38.742Z,3.80
2018-05-11T13:26:38.785Z,3.40
2018-05-11T13:27:38.583Z,3.70
2018-05-11T13:28:38.569Z,3.60
2018-05-11T13:29:38.432Z,3.80
2018-05-11T13:32:20.766Z,3.60
2018-05-11T13:33:20.771Z,3.60
2018-05-11T13:34:20.573Z,3.10
2018-05-11T13:35:20.549Z,3.20
2018-05-11T13:36:20.448Z,3.80
2018-05-11T13:37:20.360Z,3.40
2018-05-11T13:38:20.302Z,3.60
2018-05-11T13:39:20.319Z,3.50
2018-05-11T13:40:20.121Z,3.80
2018-05-11T13:41:21.075Z,3.70
2018-05-11T13:42:19.972Z,3.10
2018-05-11T13:43:19.931Z,3.70
2018-05-11T13:44:19.850Z,3.40
2018-05-11T13:45:19.762Z,3.20
2018-05-11T13:46:19.679Z,3.30
2018-05-11T13:47:19.604Z,3.20
2018-05-11T13:48:19.675Z,3.10
2018-05-11T13:49:19.560Z,2.90
2018-05-11T13:50:19.368Z,3.50
2018-05-11T13:53:01.291Z,3.00
2018-05-11T13:54:01.267Z,3.30
2018-05-11T13:55:01.081Z,3.40
2018-05-11T13:57:43.273Z,3.00
2018-05-11T13:58:43.307Z,3.40
2018-05-11T13:59:43.084Z,3.30
2018-05-11T14:00:43.014Z,3.30
2018-05-11T14:01:42.950Z,3.10
2018-05-11T14:04:25.299Z,3.00
2018-05-11T14:07:07.250Z,3.40
2018-05-11T14:08:07.295Z,3.10
2018-05-11T14:09:07.121Z,2.90
2018-05-11T14:10:07.100Z,2.90
2018-05-11T14:11:06.947Z,3.00
2018-05-11T14:12:06.870Z,2.60
2018-05-11T14:13:06.815Z,2.90
2018-05-11T14:14:06.860Z,3.00
2018-05-11T14:15:06.643Z,3.00
2018-05-11T14:16:06.578Z,3.20
2018-05-11T14:17:06.492Z,3.50
2018-05-11T14:18:06.436Z,3.20
2018-05-11T14:19:06.350Z,3.20
2018-05-11T14:20:06.263Z,3.20
2018-05-11T14:21:06.179Z,3.10
2018-05-11T14:22:06.151Z,3.10
2018-05-11T14:23:06.043Z,3.20
2018-05-11T14:24:06.091Z,3.30
2018-05-11T14:25:05.884Z,3.00
2018-05-11T14:26:05.866Z,3.40
2018-05-11T14:27:05.733Z,3.20
2018-05-11T14:28:05.781Z,3.20
2018-05-11T14:29:05.585Z,3.40
2018-05-11T14:30:05.626Z,2.90
2018-05-11T14:31:05.443Z,3.00
2018-05-11T14:33:47.249Z,2.90
2018-05-11T14:34:48.202Z,3.60
2018-05-11T14:35:47.120Z,3.10
2018-05-11T14:36:47.059Z,3.00
2018-05-11T14:37:46.950Z,2.90
2018-05-11T14:38:46.954Z,3.10
2018-05-11T14:39:46.891Z,2.90
2018-05-11T14:40:47.905Z,2.60
2018-05-11T14:41:46.662Z,3.10
2018-05-11T14:42:46.591Z,2.90
2018-05-11T14:43:46.497Z,3.20
2018-05-11T14:44:46.438Z,2.70
2018-05-11T14:45:46.410Z,2.70
2018-05-11T14:46:46.582Z,2.90
2018-05-11T14:47:46.199Z,2.80